Silver Lake, Washington
Current Conditions -  °F | °C
As of 10:53 AM on Wednesday 26 Nov 2014 (Local Time) from KPAE Reporting Station
Few Clouds Few Clouds  
Wind Chill: 56°   Ceiling: Unl
Heat Index: 56°   Visibility: 10mi
Dew Point: 51°   Wind: 24mph
Humidity: 84%   Direction: 190°S
Pressure: 30.07"   Gusts: NA
Location:  47.9027°N, 122.261°W
Report Text: KPAE 261853Z 19021KT 10SM FEW015 13/11 A3007 RMK AO2 PK WND 19028/1841 SLP182 T01330106
Loading
Personal Weather Stations






























Interactive Weather Map New forecast layout! Learn more

10-Day Weather Forecast

Advertisements
Track Severe Weather on mobile